sensor_id;sensor_type;location;lat;lon;timestamp;temperature;humidity
12602;DHT22;30282;16.436;99.370;2023-11-19T00:00:02;21.00;99.90
12602;DHT22;30282;16.436;99.370;2023-11-19T00:02:31;21.00;99.90
12602;DHT22;30282;16.436;99.370;2023-11-19T00:05:00;21.00;99.90
12602;DHT22;30282;16.436;99.370;2023-11-19T00:07:30;21.10;99.90
12602;DHT22;30282;16.436;99.370;2023-11-19T00:09:59;21.20;99.90
12602;DHT22;30282;16.436;99.370;2023-11-19T00:12:38;21.20;99.90
12602;DHT22;30282;16.436;99.370;2023-11-19T00:15:08;21.30;99.90
12602;DHT22;30282;16.436;99.370;2023-11-19T00:17:43;21.40;99.90
12602;DHT22;30282;16.436;99.370;2023-11-19T00:20:14;21.60;99.90
12602;DHT22;30282;16.436;99.370;2023-11-19T00:22:44;21.70;99.90
12602;DHT22;30282;16.436;99.370;2023-11-19T00:25:15;21.80;99.90
12602;DHT22;30282;16.436;99.370;2023-11-19T00:27:46;21.90;99.90
12602;DHT22;30282;16.436;99.370;2023-11-19T00:30:16;22.00;99.90
12602;DHT22;30282;16.436;99.370;2023-11-19T00:32:45;22.10;99.90
12602;DHT22;30282;16.436;99.370;2023-11-19T00:35:14;22.20;99.90
12602;DHT22;30282;16.436;99.370;2023-11-19T00:37:49;22.30;99.90
12602;DHT22;30282;16.436;99.370;2023-11-19T00:40:18;22.40;99.90
12602;DHT22;30282;16.436;99.370;2023-11-19T00:42:51;22.50;99.90
12602;DHT22;30282;16.436;99.370;2023-11-19T00:45:20;22.60;99.90
12602;DHT22;30282;16.436;99.370;2023-11-19T00:47:50;22.70;99.90
12602;DHT22;30282;16.436;99.370;2023-11-19T00:50:19;22.80;99.90
12602;DHT22;30282;16.436;99.370;2023-11-19T00:52:49;22.90;99.90
12602;DHT22;30282;16.436;99.370;2023-11-19T00:55:18;23.00;99.90
12602;DHT22;30282;16.436;99.370;2023-11-19T00:57:48;23.10;99.90
12602;DHT22;30282;16.436;99.370;2023-11-19T01:00:19;23.30;99.90
12602;DHT22;30282;16.436;99.370;2023-11-19T01:02:51;23.40;99.90
12602;DHT22;30282;16.436;99.370;2023-11-19T01:05:20;23.40;99.90
12602;DHT22;30282;16.436;99.370;2023-11-19T01:07:50;23.60;99.90
12602;DHT22;30282;16.436;99.370;2023-11-19T01:10:20;23.70;99.90
12602;DHT22;30282;16.436;99.370;2023-11-19T01:12:50;23.80;99.90
12602;DHT22;30282;16.436;99.370;2023-11-19T01:15:21;23.90;99.90
12602;DHT22;30282;16.436;99.370;2023-11-19T01:17:57;24.10;99.90
12602;DHT22;30282;16.436;99.370;2023-11-19T01:20:27;24.20;99.90
12602;DHT22;30282;16.436;99.370;2023-11-19T01:22:56;24.40;99.90
12602;DHT22;30282;16.436;99.370;2023-11-19T01:25:26;24.50;99.90
12602;DHT22;30282;16.436;99.370;2023-11-19T01:27:55;24.60;99.90
12602;DHT22;30282;16.436;99.370;2023-11-19T01:30:27;24.80;99.90
12602;DHT22;30282;16.436;99.370;2023-11-19T01:32:56;25.00;99.90
12602;DHT22;30282;16.436;99.370;2023-11-19T01:35:28;25.10;99.90
12602;DHT22;30282;16.436;99.370;2023-11-19T01:37:57;25.20;99.90
12602;DHT22;30282;16.436;99.370;2023-11-19T01:40:27;25.30;99.90
12602;DHT22;30282;16.436;99.370;2023-11-19T01:42:56;25.30;99.90
12602;DHT22;30282;16.436;99.370;2023-11-19T01:45:30;24.90;99.90
12602;DHT22;30282;16.436;99.370;2023-11-19T01:48:02;25.10;99.90
12602;DHT22;30282;16.436;99.370;2023-11-19T01:50:32;25.20;99.90
12602;DHT22;30282;16.436;99.370;2023-11-19T01:53:02;25.00;99.90
12602;DHT22;30282;16.436;99.370;2023-11-19T01:55:32;25.30;99.90
12602;DHT22;30282;16.436;99.370;2023-11-19T01:58:02;25.50;99.90
12602;DHT22;30282;16.436;99.370;2023-11-19T02:00:33;25.60;99.90
12602;DHT22;30282;16.436;99.370;2023-11-19T02:03:05;25.60;99.90
12602;DHT22;30282;16.436;99.370;2023-11-19T02:05:38;25.80;99.90
12602;DHT22;30282;16.436;99.370;2023-11-19T02:08:08;25.80;99.90
12602;DHT22;30282;16.436;99.370;2023-11-19T02:10:38;25.90;99.90
12602;DHT22;30282;16.436;99.370;2023-11-19T02:13:07;26.00;99.90
12602;DHT22;30282;16.436;99.370;2023-11-19T02:15:38;26.10;99.90
12602;DHT22;30282;16.436;99.370;2023-11-19T02:18:22;26.20;99.90
12602;DHT22;30282;16.436;99.370;2023-11-19T02:20:54;26.20;99.90
12602;DHT22;30282;16.436;99.370;2023-11-19T02:23:27;26.40;99.90
12602;DHT22;30282;16.436;99.370;2023-11-19T02:26:03;26.60;99.90
12602;DHT22;30282;16.436;99.370;2023-11-19T02:28:40;26.70;99.90
12602;DHT22;30282;16.436;99.370;2023-11-19T02:31:15;26.90;99.90
12602;DHT22;30282;16.436;99.370;2023-11-19T02:33:46;27.10;99.90
12602;DHT22;30282;16.436;99.370;2023-11-19T02:36:25;27.10;99.90
12602;DHT22;30282;16.436;99.370;2023-11-19T02:39:08;27.10;99.90
12602;DHT22;30282;16.436;99.370;2023-11-19T02:41:39;27.20;99.90
12602;DHT22;30282;16.436;99.370;2023-11-19T02:44:10;27.20;99.90
12602;DHT22;30282;16.436;99.370;2023-11-19T02:46:41;27.30;99.90
12602;DHT22;30282;16.436;99.370;2023-11-19T02:49:10;27.50;99.90
12602;DHT22;30282;16.436;99.370;2023-11-19T02:51:40;27.60;99.90
12602;DHT22;30282;16.436;99.370;2023-11-19T02:54:09;27.80;99.90
12602;DHT22;30282;16.436;99.370;2023-11-19T02:56:39;28.10;99.90
12602;DHT22;30282;16.436;99.370;2023-11-19T02:59:12;28.00;99.90
12602;DHT22;30282;16.436;99.370;2023-11-19T03:01:54;28.10;99.90
12602;DHT22;30282;16.436;99.370;2023-11-19T03:04:23;28.30;99.90
12602;DHT22;30282;16.436;99.370;2023-11-19T03:06:52;28.60;99.90
12602;DHT22;30282;16.436;99.370;2023-11-19T03:09:20;28.60;99.90
12602;DHT22;30282;16.436;99.370;2023-11-19T03:11:51;28.60;99.90
12602;DHT22;30282;16.436;99.370;2023-11-19T03:14:22;28.80;99.90
12602;DHT22;30282;16.436;99.370;2023-11-19T03:16:51;28.70;99.90
12602;DHT22;30282;16.436;99.370;2023-11-19T03:19:20;29.00;99.90
12602;DHT22;30282;16.436;99.370;2023-11-19T03:21:50;29.20;99.90
12602;DHT22;30282;16.436;99.370;2023-11-19T03:24:19;29.30;99.90
12602;DHT22;30282;16.436;99.370;2023-11-19T03:26:49;29.30;99.90
12602;DHT22;30282;16.436;99.370;2023-11-19T03:29:18;29.40;99.90
12602;DHT22;30282;16.436;99.370;2023-11-19T03:31:49;29.00;99.90
12602;DHT22;30282;16.436;99.370;2023-11-19T03:34:19;28.80;99.90
12602;DHT22;30282;16.436;99.370;2023-11-19T03:36:48;28.50;99.90
12602;DHT22;30282;16.436;99.370;2023-11-19T03:39:17;28.70;99.90
12602;DHT22;30282;16.436;99.370;2023-11-19T03:41:47;28.80;99.90
12602;DHT22;30282;16.436;99.370;2023-11-19T03:44:16;29.10;99.90
12602;DHT22;30282;16.436;99.370;2023-11-19T03:46:46;29.40;99.90
12602;DHT22;30282;16.436;99.370;2023-11-19T03:49:17;29.20;99.90
12602;DHT22;30282;16.436;99.370;2023-11-19T03:51:46;29.10;99.90
12602;DHT22;30282;16.436;99.370;2023-11-19T03:54:15;29.30;99.90
12602;DHT22;30282;16.436;99.370;2023-11-19T03:56:45;29.70;99.90
12602;DHT22;30282;16.436;99.370;2023-11-19T03:59:14;30.00;99.90
12602;DHT22;30282;16.436;99.370;2023-11-19T04:01:43;30.20;99.90
12602;DHT22;30282;16.436;99.370;2023-11-19T04:04:12;29.80;99.90
12602;DHT22;30282;16.436;99.370;2023-11-19T04:06:43;29.70;99.90
12602;DHT22;30282;16.436;99.370;2023-11-19T04:09:12;29.70;99.90
12602;DHT22;30282;16.436;99.370;2023-11-19T04:11:42;29.80;99.90
12602;DHT22;30282;16.436;99.370;2023-11-19T04:14:13;29.90;99.90
12602;DHT22;30282;16.436;99.370;2023-11-19T04:16:45;29.90;99.90
12602;DHT22;30282;16.436;99.370;2023-11-19T04:19:14;29.90;99.90
12602;DHT22;30282;16.436;99.370;2023-11-19T04:21:45;29.40;99.90
12602;DHT22;30282;16.436;99.370;2023-11-19T04:24:15;29.80;99.90
12602;DHT22;30282;16.436;99.370;2023-11-19T04:26:44;30.00;99.90
12602;DHT22;30282;16.436;99.370;2023-11-19T04:29:15;30.40;99.90
12602;DHT22;30282;16.436;99.370;2023-11-19T04:31:46;30.50;99.90
12602;DHT22;30282;16.436;99.370;2023-11-19T04:34:15;30.60;99.90
12602;DHT22;30282;16.436;99.370;2023-11-19T04:36:46;30.60;99.90
12602;DHT22;30282;16.436;99.370;2023-11-19T04:39:16;30.50;99.90
12602;DHT22;30282;16.436;99.370;2023-11-19T04:41:48;30.20;99.90
12602;DHT22;30282;16.436;99.370;2023-11-19T04:44:19;30.40;99.90
12602;DHT22;30282;16.436;99.370;2023-11-19T04:46:48;30.80;99.90
12602;DHT22;30282;16.436;99.370;2023-11-19T04:49:17;30.60;99.90
12602;DHT22;30282;16.436;99.370;2023-11-19T04:51:49;30.40;99.90
12602;DHT22;30282;16.436;99.370;2023-11-19T04:54:18;30.60;99.90
12602;DHT22;30282;16.436;99.370;2023-11-19T04:56:48;30.60;99.90
12602;DHT22;30282;16.436;99.370;2023-11-19T04:59:17;30.50;99.90
12602;DHT22;30282;16.436;99.370;2023-11-19T05:01:47;30.90;99.90
12602;DHT22;30282;16.436;99.370;2023-11-19T05:04:17;31.20;99.90
12602;DHT22;30282;16.436;99.370;2023-11-19T05:06:49;31.10;99.90
12602;DHT22;30282;16.436;99.370;2023-11-19T05:09:18;31.30;99.90
12602;DHT22;30282;16.436;99.370;2023-11-19T05:11:47;31.30;99.90
12602;DHT22;30282;16.436;99.370;2023-11-19T05:14:16;31.70;99.90
12602;DHT22;30282;16.436;99.370;2023-11-19T05:16:47;31.80;99.90
12602;DHT22;30282;16.436;99.370;2023-11-19T05:19:16;31.60;99.90
12602;DHT22;30282;16.436;99.370;2023-11-19T05:21:45;31.70;99.90
12602;DHT22;30282;16.436;99.370;2023-11-19T05:24:16;31.30;99.90
12602;DHT22;30282;16.436;99.370;2023-11-19T05:26:46;31.40;99.90
12602;DHT22;30282;16.436;99.370;2023-11-19T05:29:17;31.50;99.90
12602;DHT22;30282;16.436;99.370;2023-11-19T05:31:46;31.90;99.90
12602;DHT22;30282;16.436;99.370;2023-11-19T05:34:16;32.00;99.90
12602;DHT22;30282;16.436;99.370;2023-11-19T05:36:46;32.30;99.90
12602;DHT22;30282;16.436;99.370;2023-11-19T05:39:18;32.50;99.90
12602;DHT22;30282;16.436;99.370;2023-11-19T05:41:47;32.60;99.90
12602;DHT22;30282;16.436;99.370;2023-11-19T05:44:17;32.60;99.90
12602;DHT22;30282;16.436;99.370;2023-11-19T05:46:46;32.70;99.90
12602;DHT22;30282;16.436;99.370;2023-11-19T05:49:15;32.60;99.90
12602;DHT22;30282;16.436;99.370;2023-11-19T05:51:44;32.40;99.90
12602;DHT22;30282;16.436;99.370;2023-11-19T05:54:14;31.80;99.90
12602;DHT22;30282;16.436;99.370;2023-11-19T05:56:48;31.90;99.90
12602;DHT22;30282;16.436;99.370;2023-11-19T05:59:17;31.30;99.90
12602;DHT22;30282;16.436;99.370;2023-11-19T06:01:46;31.20;99.90
12602;DHT22;30282;16.436;99.370;2023-11-19T06:04:15;31.30;99.90
12602;DHT22;30282;16.436;99.370;2023-11-19T06:06:45;31.60;99.90
12602;DHT22;30282;16.436;99.370;2023-11-19T06:09:14;31.70;99.90
12602;DHT22;30282;16.436;99.370;2023-11-19T06:11:47;31.60;99.90
12602;DHT22;30282;16.436;99.370;2023-11-19T06:14:16;31.20;99.90
12602;DHT22;30282;16.436;99.370;2023-11-19T06:16:45;30.80;99.90
12602;DHT22;30282;16.436;99.370;2023-11-19T06:19:14;31.10;99.90
12602;DHT22;30282;16.436;99.370;2023-11-19T06:21:43;31.30;99.90
12602;DHT22;30282;16.436;99.370;2023-11-19T06:24:12;31.40;99.90
12602;DHT22;30282;16.436;99.370;2023-11-19T06:26:42;31.40;99.90
12602;DHT22;30282;16.436;99.370;2023-11-19T06:29:13;31.50;99.90
12602;DHT22;30282;16.436;99.370;2023-11-19T06:31:45;31.10;99.90
12602;DHT22;30282;16.436;99.370;2023-11-19T06:34:15;31.00;99.90
12602;DHT22;30282;16.436;99.370;2023-11-19T06:36:45;31.20;99.90
12602;DHT22;30282;16.436;99.370;2023-11-19T06:39:15;31.20;99.90
12602;DHT22;30282;16.436;99.370;2023-11-19T06:41:48;31.40;99.90
12602;DHT22;30282;16.436;99.370;2023-11-19T06:44:18;31.50;99.90
12602;DHT22;30282;16.436;99.370;2023-11-19T06:46:49;31.40;99.90
12602;DHT22;30282;16.436;99.370;2023-11-19T06:49:18;31.20;99.90
12602;DHT22;30282;16.436;99.370;2023-11-19T06:51:48;30.70;99.90
12602;DHT22;30282;16.436;99.370;2023-11-19T06:54:17;30.50;99.90
12602;DHT22;30282;16.436;99.370;2023-11-19T06:56:46;30.60;99.90
12602;DHT22;30282;16.436;99.370;2023-11-19T06:59:17;30.70;99.90
12602;DHT22;30282;16.436;99.370;2023-11-19T07:01:46;30.50;99.90
12602;DHT22;30282;16.436;99.370;2023-11-19T07:04:16;30.30;99.90
12602;DHT22;30282;16.436;99.370;2023-11-19T07:06:45;30.30;99.90
12602;DHT22;30282;16.436;99.370;2023-11-19T07:09:15;30.40;99.90
12602;DHT22;30282;16.436;99.370;2023-11-19T07:11:45;30.20;99.90
12602;DHT22;30282;16.436;99.370;2023-11-19T07:14:14;30.30;99.90
12602;DHT22;30282;16.436;99.370;2023-11-19T07:16:45;30.10;99.90
12602;DHT22;30282;16.436;99.370;2023-11-19T07:19:14;30.10;99.90
12602;DHT22;30282;16.436;99.370;2023-11-19T07:21:44;30.10;99.90
12602;DHT22;30282;16.436;99.370;2023-11-19T07:24:13;30.20;99.90
12602;DHT22;30282;16.436;99.370;2023-11-19T07:26:45;30.20;99.90
12602;DHT22;30282;16.436;99.370;2023-11-19T07:29:15;30.30;99.90
12602;DHT22;30282;16.436;99.370;2023-11-19T07:31:46;30.20;99.90
12602;DHT22;30282;16.436;99.370;2023-11-19T07:34:15;30.10;99.90
12602;DHT22;30282;16.436;99.370;2023-11-19T07:36:45;30.10;99.90
12602;DHT22;30282;16.436;99.370;2023-11-19T07:39:14;30.30;99.90
12602;DHT22;30282;16.436;99.370;2023-11-19T07:41:43;30.40;99.90
12602;DHT22;30282;16.436;99.370;2023-11-19T07:44:12;30.30;99.90
12602;DHT22;30282;16.436;99.370;2023-11-19T07:46:42;30.40;99.90
12602;DHT22;30282;16.436;99.370;2023-11-19T07:49:13;30.50;99.90
12602;DHT22;30282;16.436;99.370;2023-11-19T07:51:44;30.60;99.90
12602;DHT22;30282;16.436;99.370;2023-11-19T07:54:14;30.70;99.90
12602;DHT22;30282;16.436;99.370;2023-11-19T07:56:43;30.70;99.90
12602;DHT22;30282;16.436;99.370;2023-11-19T07:59:12;30.80;99.90
12602;DHT22;30282;16.436;99.370;2023-11-19T08:01:41;30.90;99.90
12602;DHT22;30282;16.436;99.370;2023-11-19T08:04:13;30.90;99.90
12602;DHT22;30282;16.436;99.370;2023-11-19T08:06:42;30.90;99.90
12602;DHT22;30282;16.436;99.370;2023-11-19T08:09:12;30.90;99.90
12602;DHT22;30282;16.436;99.370;2023-11-19T08:11:42;30.90;99.90
12602;DHT22;30282;16.436;99.370;2023-11-19T08:14:11;31.00;99.90
12602;DHT22;30282;16.436;99.370;2023-11-19T08:16:41;30.90;99.90
12602;DHT22;30282;16.436;99.370;2023-11-19T08:19:12;31.10;99.90
12602;DHT22;30282;16.436;99.370;2023-11-19T08:21:42;31.20;99.90
12602;DHT22;30282;16.436;99.370;2023-11-19T08:24:11;31.30;99.90
12602;DHT22;30282;16.436;99.370;2023-11-19T08:26:40;31.30;99.90
12602;DHT22;30282;16.436;99.370;2023-11-19T08:29:10;31.20;99.90
12602;DHT22;30282;16.436;99.370;2023-11-19T08:31:40;31.20;99.90
12602;DHT22;30282;16.436;99.370;2023-11-19T08:34:09;31.30;99.90
12602;DHT22;30282;16.436;99.370;2023-11-19T08:36:41;31.20;99.90
12602;DHT22;30282;16.436;99.370;2023-11-19T08:39:11;31.20;99.90
12602;DHT22;30282;16.436;99.370;2023-11-19T08:41:40;31.20;99.90
12602;DHT22;30282;16.436;99.370;2023-11-19T08:44:10;31.20;99.90
12602;DHT22;30282;16.436;99.370;2023-11-19T08:46:39;31.20;99.90
12602;DHT22;30282;16.436;99.370;2023-11-19T08:49:14;31.40;99.90
12602;DHT22;30282;16.436;99.370;2023-11-19T08:51:45;31.30;99.90
12602;DHT22;30282;16.436;99.370;2023-11-19T08:54:14;31.30;99.90
12602;DHT22;30282;16.436;99.370;2023-11-19T08:56:44;31.00;99.90
12602;DHT22;30282;16.436;99.370;2023-11-19T08:59:13;30.60;99.90
12602;DHT22;30282;16.436;99.370;2023-11-19T09:01:42;30.60;99.90
12602;DHT22;30282;16.436;99.370;2023-11-19T09:04:11;30.60;99.90
12602;DHT22;30282;16.436;99.370;2023-11-19T09:06:41;30.70;99.90
12602;DHT22;30282;16.436;99.370;2023-11-19T09:09:12;30.70;99.90
12602;DHT22;30282;16.436;99.370;2023-11-19T09:11:41;30.60;99.90
12602;DHT22;30282;16.436;99.370;2023-11-19T09:14:11;30.50;99.90
12602;DHT22;30282;16.436;99.370;2023-11-19T09:16:43;30.50;99.90
12602;DHT22;30282;16.436;99.370;2023-11-19T09:19:12;30.50;99.90
12602;DHT22;30282;16.436;99.370;2023-11-19T09:21:41;30.40;99.90
12602;DHT22;30282;16.436;99.370;2023-11-19T09:24:12;30.40;99.90
12602;DHT22;30282;16.436;99.370;2023-11-19T09:26:41;30.30;99.90
12602;DHT22;30282;16.436;99.370;2023-11-19T09:29:11;30.20;99.90
12602;DHT22;30282;16.436;99.370;2023-11-19T09:31:41;30.10;99.90
12602;DHT22;30282;16.436;99.370;2023-11-19T09:34:10;30.00;99.90
12602;DHT22;30282;16.436;99.370;2023-11-19T09:36:39;29.90;99.90
12602;DHT22;30282;16.436;99.370;2023-11-19T09:39:12;29.90;99.90
12602;DHT22;30282;16.436;99.370;2023-11-19T09:41:44;29.90;99.90
12602;DHT22;30282;16.436;99.370;2023-11-19T09:44:17;29.80;99.90
12602;DHT22;30282;16.436;99.370;2023-11-19T09:46:46;29.70;99.90
12602;DHT22;30282;16.436;99.370;2023-11-19T09:49:17;29.60;99.90
12602;DHT22;30282;16.436;99.370;2023-11-19T09:51:46;29.50;99.90
12602;DHT22;30282;16.436;99.370;2023-11-19T09:54:17;29.40;99.90
12602;DHT22;30282;16.436;99.370;2023-11-19T09:56:47;29.30;99.90
12602;DHT22;30282;16.436;99.370;2023-11-19T09:59:22;29.30;99.90
12602;DHT22;30282;16.436;99.370;2023-11-19T10:01:53;29.10;99.90
12602;DHT22;30282;16.436;99.370;2023-11-19T10:04:23;29.00;99.90
12602;DHT22;30282;16.436;99.370;2023-11-19T10:06:53;28.80;99.90
12602;DHT22;30282;16.436;99.370;2023-11-19T10:09:24;28.70;99.90
12602;DHT22;30282;16.436;99.370;2023-11-19T10:11:58;28.70;99.90
12602;DHT22;30282;16.436;99.370;2023-11-19T10:14:29;28.60;99.90
12602;DHT22;30282;16.436;99.370;2023-11-19T10:17:01;28.60;99.90
12602;DHT22;30282;16.436;99.370;2023-11-19T10:19:34;28.50;99.90
12602;DHT22;30282;16.436;99.370;2023-11-19T10:22:08;28.50;99.90
12602;DHT22;30282;16.436;99.370;2023-11-19T10:24:39;28.40;99.90
12602;DHT22;30282;16.436;99.370;2023-11-19T10:27:08;28.40;99.90
12602;DHT22;30282;16.436;99.370;2023-11-19T10:29:38;28.40;99.90
12602;DHT22;30282;16.436;99.370;2023-11-19T10:32:07;28.40;99.90
12602;DHT22;30282;16.436;99.370;2023-11-19T10:34:36;28.40;99.90
12602;DHT22;30282;16.436;99.370;2023-11-19T10:37:06;28.30;99.90
12602;DHT22;30282;16.436;99.370;2023-11-19T10:39:54;28.20;99.90
12602;DHT22;30282;16.436;99.370;2023-11-19T10:42:24;28.10;99.90
12602;DHT22;30282;16.436;99.370;2023-11-19T10:44:53;28.00;99.90
12602;DHT22;30282;16.436;99.370;2023-11-19T10:47:23;28.00;99.90
12602;DHT22;30282;16.436;99.370;2023-11-19T10:49:52;27.90;99.90
12602;DHT22;30282;16.436;99.370;2023-11-19T10:52:22;27.90;99.90
12602;DHT22;30282;16.436;99.370;2023-11-19T10:54:59;27.70;99.90
12602;DHT22;30282;16.436;99.370;2023-11-19T10:57:31;27.60;99.90
12602;DHT22;30282;16.436;99.370;2023-11-19T11:00:02;27.60;99.90
12602;DHT22;30282;16.436;99.370;2023-11-19T11:02:40;27.50;99.90
12602;DHT22;30282;16.436;99.370;2023-11-19T11:05:11;27.40;99.90
12602;DHT22;30282;16.436;99.370;2023-11-19T11:07:44;27.30;99.90
12602;DHT22;30282;16.436;99.370;2023-11-19T11:10:15;27.20;99.90
12602;DHT22;30282;16.436;99.370;2023-11-19T11:12:46;27.10;99.90
12602;DHT22;30282;16.436;99.370;2023-11-19T11:15:18;27.10;99.90
12602;DHT22;30282;16.436;99.370;2023-11-19T11:17:49;27.10;99.90
12602;DHT22;30282;16.436;99.370;2023-11-19T11:20:21;27.10;99.90
12602;DHT22;30282;16.436;99.370;2023-11-19T11:23:02;26.90;99.90
12602;DHT22;30282;16.436;99.370;2023-11-19T11:25:43;26.90;99.90
12602;DHT22;30282;16.436;99.370;2023-11-19T11:28:26;26.80;99.90
12602;DHT22;30282;16.436;99.370;2023-11-19T11:31:12;26.70;99.90
12602;DHT22;30282;16.436;99.370;2023-11-19T11:34:12;26.70;99.90
12602;DHT22;30282;16.436;99.370;2023-11-19T11:36:49;26.60;99.90
12602;DHT22;30282;16.436;99.370;2023-11-19T11:39:23;26.50;99.90
12602;DHT22;30282;16.436;99.370;2023-11-19T11:45:05;26.60;99.90
12602;DHT22;30282;16.436;99.370;2023-11-19T11:48:05;26.50;99.90
12602;DHT22;30282;16.436;99.370;2023-11-19T11:50:35;26.50;99.90
12602;DHT22;30282;16.436;99.370;2023-11-19T11:53:21;26.40;99.90
12602;DHT22;30282;16.436;99.370;2023-11-19T11:55:56;26.40;99.90
12602;DHT22;30282;16.436;99.370;2023-11-19T11:58:34;26.50;99.90
12602;DHT22;30282;16.436;99.370;2023-11-19T12:01:06;26.50;99.90
12602;DHT22;30282;16.436;99.370;2023-11-19T12:03:38;26.50;99.90
12602;DHT22;30282;16.436;99.370;2023-11-19T12:06:08;26.40;99.90
12602;DHT22;30282;16.436;99.370;2023-11-19T12:08:37;26.30;99.90
12602;DHT22;30282;16.436;99.370;2023-11-19T12:11:07;26.30;99.90
12602;DHT22;30282;16.436;99.370;2023-11-19T12:13:54;26.30;99.90
12602;DHT22;30282;16.436;99.370;2023-11-19T12:16:28;26.20;99.90
12602;DHT22;30282;16.436;99.370;2023-11-19T12:19:03;26.20;99.90
12602;DHT22;30282;16.436;99.370;2023-11-19T12:21:34;26.20;99.90
12602;DHT22;30282;16.436;99.370;2023-11-19T12:24:05;26.20;99.90
12602;DHT22;30282;16.436;99.370;2023-11-19T12:26:39;26.10;99.90
12602;DHT22;30282;16.436;99.370;2023-11-19T12:29:17;26.10;99.90
12602;DHT22;30282;16.436;99.370;2023-11-19T12:31:56;25.90;99.90
12602;DHT22;30282;16.436;99.370;2023-11-19T12:34:30;25.80;99.90
12602;DHT22;30282;16.436;99.370;2023-11-19T12:37:04;25.90;99.90
12602;DHT22;30282;16.436;99.370;2023-11-19T12:39:33;25.90;99.90
12602;DHT22;30282;16.436;99.370;2023-11-19T12:42:03;25.80;99.90
12602;DHT22;30282;16.436;99.370;2023-11-19T12:44:32;25.60;99.90
12602;DHT22;30282;16.436;99.370;2023-11-19T12:47:05;25.50;99.90
12602;DHT22;30282;16.436;99.370;2023-11-19T12:49:34;25.60;99.90
12602;DHT22;30282;16.436;99.370;2023-11-19T12:52:12;25.60;99.90
12602;DHT22;30282;16.436;99.370;2023-11-19T12:54:41;25.60;99.90
12602;DHT22;30282;16.436;99.370;2023-11-19T12:57:10;25.70;99.90
12602;DHT22;30282;16.436;99.370;2023-11-19T12:59:40;25.70;99.90
12602;DHT22;30282;16.436;99.370;2023-11-19T13:02:11;25.70;99.90
12602;DHT22;30282;16.436;99.370;2023-11-19T13:04:43;25.70;99.90
12602;DHT22;30282;16.436;99.370;2023-11-19T13:07:13;25.70;99.90
12602;DHT22;30282;16.436;99.370;2023-11-19T13:10:01;25.70;99.90
12602;DHT22;30282;16.436;99.370;2023-11-19T13:12:33;25.70;99.90
12602;DHT22;30282;16.436;99.370;2023-11-19T13:15:02;25.70;99.90
12602;DHT22;30282;16.436;99.370;2023-11-19T13:17:33;25.70;99.90
12602;DHT22;30282;16.436;99.370;2023-11-19T13:20:02;25.60;99.90
12602;DHT22;30282;16.436;99.370;2023-11-19T13:22:34;25.40;99.90
12602;DHT22;30282;16.436;99.370;2023-11-19T13:25:04;25.20;99.90
12602;DHT22;30282;16.436;99.370;2023-11-19T13:27:33;25.20;99.90
12602;DHT22;30282;16.436;99.370;2023-11-19T13:30:06;25.30;99.90
12602;DHT22;30282;16.436;99.370;2023-11-19T13:32:37;25.30;99.90
12602;DHT22;30282;16.436;99.370;2023-11-19T13:35:06;25.30;99.90
12602;DHT22;30282;16.436;99.370;2023-11-19T13:37:36;25.40;99.90
12602;DHT22;30282;16.436;99.370;2023-11-19T13:40:06;25.40;99.90
12602;DHT22;30282;16.436;99.370;2023-11-19T13:42:37;25.40;99.90
12602;DHT22;30282;16.436;99.370;2023-11-19T13:45:09;25.30;99.90
12602;DHT22;30282;16.436;99.370;2023-11-19T13:47:42;25.20;99.90
12602;DHT22;30282;16.436;99.370;2023-11-19T13:50:12;25.20;99.90
12602;DHT22;30282;16.436;99.370;2023-11-19T13:52:42;25.30;99.90
12602;DHT22;30282;16.436;99.370;2023-11-19T13:55:13;25.30;99.90
12602;DHT22;30282;16.436;99.370;2023-11-19T13:57:42;25.20;99.90
12602;DHT22;30282;16.436;99.370;2023-11-19T14:00:12;25.20;99.90
12602;DHT22;30282;16.436;99.370;2023-11-19T14:02:45;25.20;99.90
12602;DHT22;30282;16.436;99.370;2023-11-19T14:05:15;25.20;99.90
12602;DHT22;30282;16.436;99.370;2023-11-19T14:07:44;25.20;99.90
12602;DHT22;30282;16.436;99.370;2023-11-19T14:10:15;25.20;99.90
12602;DHT22;30282;16.436;99.370;2023-11-19T14:12:44;25.10;99.90
12602;DHT22;30282;16.436;99.370;2023-11-19T14:15:13;25.10;99.90
12602;DHT22;30282;16.436;99.370;2023-11-19T14:17:45;25.10;99.90
12602;DHT22;30282;16.436;99.370;2023-11-19T14:20:15;25.00;99.90
12602;DHT22;30282;16.436;99.370;2023-11-19T14:22:45;24.90;99.90
12602;DHT22;30282;16.436;99.370;2023-11-19T14:25:16;24.90;99.90
12602;DHT22;30282;16.436;99.370;2023-11-19T14:27:46;24.80;99.90
12602;DHT22;30282;16.436;99.370;2023-11-19T14:30:15;24.70;99.90
12602;DHT22;30282;16.436;99.370;2023-11-19T14:32:46;24.70;99.90
12602;DHT22;30282;16.436;99.370;2023-11-19T14:35:16;24.70;99.90
12602;DHT22;30282;16.436;99.370;2023-11-19T14:37:49;24.70;99.90
12602;DHT22;30282;16.436;99.370;2023-11-19T14:40:18;24.70;99.90
12602;DHT22;30282;16.436;99.370;2023-11-19T14:42:48;24.70;99.90
12602;DHT22;30282;16.436;99.370;2023-11-19T14:45:18;24.60;99.90
12602;DHT22;30282;16.436;99.370;2023-11-19T14:47:49;24.50;99.90
12602;DHT22;30282;16.436;99.370;2023-11-19T14:50:19;24.50;99.90
12602;DHT22;30282;16.436;99.370;2023-11-19T14:52:48;24.40;99.90
12602;DHT22;30282;16.436;99.370;2023-11-19T14:55:17;24.40;99.90
12602;DHT22;30282;16.436;99.370;2023-11-19T14:57:47;24.20;99.90
12602;DHT22;30282;16.436;99.370;2023-11-19T15:00:17;24.10;99.90
12602;DHT22;30282;16.436;99.370;2023-11-19T15:02:48;24.10;99.90
12602;DHT22;30282;16.436;99.370;2023-11-19T15:05:17;24.10;99.90
12602;DHT22;30282;16.436;99.370;2023-11-19T15:07:47;24.10;99.90
12602;DHT22;30282;16.436;99.370;2023-11-19T15:10:17;24.00;99.90
12602;DHT22;30282;16.436;99.370;2023-11-19T15:12:46;24.00;99.90
12602;DHT22;30282;16.436;99.370;2023-11-19T15:15:15;24.00;99.90
12602;DHT22;30282;16.436;99.370;2023-11-19T15:17:44;24.00;99.90
12602;DHT22;30282;16.436;99.370;2023-11-19T15:20:15;23.90;99.90
12602;DHT22;30282;16.436;99.370;2023-11-19T15:22:45;23.90;99.90
12602;DHT22;30282;16.436;99.370;2023-11-19T15:25:14;23.90;99.90
12602;DHT22;30282;16.436;99.370;2023-11-19T15:27:43;24.00;99.90
12602;DHT22;30282;16.436;99.370;2023-11-19T15:30:16;23.90;99.90
12602;DHT22;30282;16.436;99.370;2023-11-19T15:32:45;23.90;99.90
12602;DHT22;30282;16.436;99.370;2023-11-19T15:35:16;23.90;99.90
12602;DHT22;30282;16.436;99.370;2023-11-19T15:37:46;23.90;99.90
12602;DHT22;30282;16.436;99.370;2023-11-19T15:40:15;23.90;99.90